Pekin, IL (61558)

7:29 PM CST on December 04, 2016 (GMT -0600)
Glorianne Acres | | Change Station

Elev 525 ft 40.53 °N, 89.63 °W | Updated 3 seconds ago

Overcast
Overcast
32.6 °F
Feels Like 33 °F
N
0.0
Wind Variable Wind from SSW
Gusts 0.0 mph

Today
High -- | Low -- °F
--% Chance of Precip.
Yesterday
High -- | Low -- °F
Precip. -- in
Pressure 29.97 in
Visibility 3.0 miles
Clouds Overcast 300 ft
Windchill 33 °F
Dew Point 31 °F
Humidity 95%
Rainfall 0.07 in
Snow Depth Not available.
7:06 AM 4:31 PM
Waxing Crescent, 27% visible
METAR KPIA 050054Z 24003KT 3SM BR OVC003 01/01 A2995 RMK AO2 SLP147 T00060006
Pressure 29.97 in
Visibility 3.0 miles
Clouds Overcast 300 ft
Windchill 33 °F
Dew Point 31 °F
Humidity 95%
Rainfall 0.07 in
Snow Depth Not available.
7:06 AM 4:31 PM
Waxing Crescent, 27% visible
METAR KPIA 050054Z 24003KT 3SM BR OVC003 01/01 A2995 RMK AO2 SLP147 T00060006

10-Day Weather Forecast

Almanac

Astronomy

Dec. 04, 2016 Rise Set
Actual Time
Civil Twilight
Nautical Twilight
Astronomical Twilight
Moon
Length of Visible Light
Length of Day
Tomorrow will be .
, % of the Moon is Illuminated

Today's Extremes

State Highs State Lows

Community

WunderPhotos

Upload Photos

1,955,734 photos uploaded!

WunderBlog® & News

Nearby

Air Quality

  Air Quality AQ Index Pollutant
Not available.

Snow Depth

Station Depth Elevation

Earthquake Activity

City Distance Mag. Time & Date
Minimum magnitude displayed is 2.5.

Coastal Water Temperatures

Place Temperature

Stations

Nearby Weather Stations

Station Location Temp. Windchill Dew Point Humidity Wind Precip. Elev Updated Type
                   

Watches & Warnings

There are currently no watches in effect.